createdAt,value
2019-04-10T00:03:54.535Z,26.07
2019-04-10T00:08:56.937Z,24.27
2019-04-10T00:13:59.269Z,30.50
2019-04-10T00:19:02.359Z,41.97
2019-04-10T00:24:05.934Z,39.33
2019-04-10T00:29:08.461Z,47.00
2019-04-10T00:34:11.583Z,58.97
2019-04-10T00:39:14.710Z,66.30
2019-04-10T00:44:17.394Z,67.17
2019-04-10T00:49:19.792Z,67.83
2019-04-10T00:54:22.145Z,74.60
2019-04-10T00:59:24.408Z,81.97
2019-04-10T01:04:26.666Z,85.03
2019-04-10T01:09:29.162Z,86.20
2019-04-10T01:14:32.045Z,89.00
2019-04-10T01:19:34.395Z,88.43
2019-04-10T01:24:37.626Z,90.80
2019-04-10T01:29:40.070Z,89.47
2019-04-10T01:34:43.339Z,95.27
2019-04-10T01:39:46.457Z,84.60
2019-04-10T01:44:49.064Z,87.33
2019-04-10T01:49:51.418Z,89.50
2019-04-10T01:54:53.708Z,85.07
2019-04-10T01:59:56.302Z,84.27
2019-04-10T02:04:58.664Z,86.07
2019-04-10T02:10:01.610Z,85.07
2019-04-10T02:15:25.939Z,83.67
2019-04-10T02:20:29.160Z,79.10
2019-04-10T02:25:32.618Z,77.43
2019-04-10T02:30:36.800Z,78.93
2019-04-10T02:35:40.065Z,74.53
2019-04-10T02:40:43.385Z,85.67
2019-04-10T02:50:59.658Z,74.10
2019-04-10T02:56:03.099Z,83.10
2019-04-10T03:01:06.920Z,75.50
2019-04-10T03:06:11.351Z,79.93
2019-04-10T03:11:14.489Z,80.30
2019-04-10T03:16:17.718Z,74.90
2019-04-10T03:21:20.769Z,79.73
2019-04-10T03:26:23.630Z,81.77
2019-04-10T03:31:29.487Z,76.53
2019-04-10T03:36:41.988Z,76.40
2019-04-10T03:41:44.368Z,80.53
2019-04-10T03:46:47.045Z,82.43
2019-04-10T03:51:49.339Z,79.27
2019-04-10T03:56:51.638Z,82.83
2019-04-10T04:01:53.928Z,81.87
2019-04-10T04:06:56.200Z,76.07
2019-04-10T04:11:58.487Z,82.63
2019-04-10T04:17:01.803Z,84.47
2019-04-10T04:22:04.369Z,79.47
2019-04-10T04:27:06.910Z,85.10
2019-04-10T04:32:09.251Z,88.40
2019-04-10T04:37:12.374Z,85.60
2019-04-10T04:42:14.941Z,81.53
2019-04-10T04:47:18.221Z,86.50
2019-04-10T04:52:20.663Z,80.10
2019-04-10T04:57:23.221Z,87.43
2019-04-10T05:02:26.235Z,85.93
2019-04-10T05:07:29.146Z,88.43
2019-04-10T05:12:31.809Z,86.73
2019-04-10T05:17:35.145Z,97.83
2019-04-10T05:22:37.619Z,93.17
2019-04-10T05:27:41.289Z,95.23
2019-04-10T05:32:43.806Z,91.87
2019-04-10T05:37:46.284Z,95.35
2019-04-10T05:42:49.117Z,101.97
2019-04-10T05:47:51.514Z,94.47
2019-04-10T05:52:53.962Z,100.23
2019-04-10T05:57:58.017Z,95.97
2019-04-10T06:03:00.574Z,92.10
2019-04-10T06:08:02.884Z,96.13
2019-04-10T06:13:05.245Z,95.40
2019-04-10T06:18:07.495Z,91.17
2019-04-10T06:23:09.875Z,94.26
2019-04-10T06:28:12.942Z,98.03
2019-04-10T06:33:15.819Z,88.77
2019-04-10T06:38:18.983Z,90.30
2019-04-10T06:43:22.570Z,93.80
2019-04-10T06:48:26.001Z,91.60
2019-04-10T06:53:28.947Z,81.60
2019-04-10T06:58:31.900Z,84.80
2019-04-10T07:03:49.540Z,77.27
2019-04-10T07:08:38.529Z,75.83
2019-04-10T07:13:41.690Z,72.17
2019-04-10T07:18:47.751Z,64.17
2019-04-10T07:23:49.026Z,63.37
2019-04-10T07:28:51.870Z,67.93
2019-04-10T07:33:55.293Z,62.53
2019-04-10T07:38:57.635Z,59.87
2019-04-10T07:43:59.927Z,58.07
2019-04-10T07:49:02.939Z,53.33
2019-04-10T07:54:06.133Z,54.67
2019-04-10T07:59:08.786Z,53.13
2019-04-10T08:04:11.146Z,56.83
2019-04-10T08:09:14.636Z,54.30
2019-04-10T08:14:17.219Z,50.73
2019-04-10T08:19:19.732Z,46.93
2019-04-10T08:24:23.773Z,47.17
2019-04-10T08:29:26.175Z,45.33
2019-04-10T08:34:28.542Z,45.97
2019-04-10T08:39:37.839Z,51.83
2019-04-10T08:44:36.058Z,44.03
2019-04-10T08:49:39.000Z,41.33
2019-04-10T08:54:42.529Z,48.43
2019-04-10T08:59:47.296Z,43.67
2019-04-10T09:04:50.230Z,46.90
2019-04-10T09:09:54.084Z,42.93
2019-04-10T09:14:57.214Z,38.83
2019-04-10T09:20:00.549Z,41.97
2019-04-10T09:25:03.301Z,38.67
2019-04-10T09:30:06.690Z,41.90
2019-04-10T09:35:09.359Z,38.50
2019-04-10T09:40:14.010Z,37.63
2019-04-10T09:45:17.534Z,37.73
2019-04-10T09:50:21.394Z,37.13
2019-04-10T09:55:24.289Z,36.03
2019-04-10T10:00:27.881Z,35.93
2019-04-10T10:05:30.732Z,35.40
2019-04-10T10:10:35.769Z,35.40
2019-04-10T10:15:37.719Z,33.60
2019-04-10T10:20:40.044Z,35.47
2019-04-10T10:25:42.332Z,32.97
2019-04-10T10:30:44.876Z,36.03
2019-04-10T10:35:47.426Z,30.40
2019-04-10T10:40:50.724Z,33.30
2019-04-10T10:45:53.524Z,32.07
2019-04-10T10:50:56.195Z,36.60
2019-04-10T10:55:58.684Z,30.53
2019-04-10T11:01:00.995Z,32.15
2019-04-10T11:06:03.932Z,33.35
2019-04-10T11:11:06.311Z,35.03
2019-04-10T11:16:09.204Z,28.90
2019-04-10T11:21:12.751Z,33.95
2019-04-10T11:26:20.186Z,30.75
2019-04-10T11:31:21.007Z,31.62
2019-04-10T11:36:23.681Z,32.85
2019-04-10T11:41:26.255Z,39.13
2019-04-10T11:46:31.941Z,29.30
2019-04-10T11:51:35.612Z,33.88
2019-04-10T11:56:38.368Z,32.65
2019-04-10T12:01:43.187Z,33.80
2019-04-10T12:06:49.188Z,32.47
2019-04-10T12:11:49.004Z,29.37
2019-04-10T12:16:51.588Z,30.17
2019-04-10T12:21:53.964Z,30.62
2019-04-10T12:26:56.294Z,27.52
2019-04-10T12:32:00.582Z,30.57
2019-04-10T12:37:03.944Z,27.02
2019-04-10T12:42:06.489Z,24.65
2019-04-10T12:47:09.911Z,24.90
2019-04-10T12:52:12.281Z,23.32
2019-04-10T12:57:14.880Z,26.15
2019-04-10T13:02:18.418Z,24.00
2019-04-10T13:07:21.237Z,24.43
2019-04-10T13:12:23.644Z,26.20
2019-04-10T13:17:26.872Z,26.07
2019-04-10T13:22:29.185Z,28.73
2019-04-10T13:27:31.618Z,32.13
2019-04-10T13:32:34.066Z,31.68
2019-04-10T13:37:36.439Z,27.55
2019-04-10T13:42:39.015Z,28.00
2019-04-10T13:47:42.789Z,26.23
2019-04-10T13:52:49.622Z,27.35
2019-04-10T13:57:51.028Z,23.63
2019-04-10T14:02:54.098Z,27.77
2019-04-10T14:07:57.718Z,23.83
2019-04-10T14:13:00.274Z,25.82
2019-04-10T14:23:15.134Z,22.70
2019-04-10T14:33:21.560Z,20.48
2019-04-10T14:38:25.196Z,25.82
2019-04-10T14:43:28.419Z,26.75
2019-04-10T14:48:31.941Z,21.65
2019-04-10T15:03:52.863Z,25.27
2019-04-10T15:08:57.532Z,24.40
2019-04-10T15:13:59.380Z,26.57
2019-04-10T15:19:02.595Z,21.23
2019-04-10T15:24:05.053Z,21.48
2019-04-10T15:29:07.911Z,19.50
2019-04-10T15:34:10.344Z,19.37
2019-04-10T15:39:12.923Z,21.65
2019-04-10T15:44:16.306Z,19.52
2019-04-10T15:49:19.433Z,24.10
2019-04-10T15:54:21.955Z,16.00
2019-04-10T15:59:24.273Z,18.48
2019-04-10T16:04:27.532Z,15.23
2019-04-10T16:09:32.564Z,15.60
2019-04-10T16:14:38.072Z,18.50
2019-04-10T16:19:56.145Z,16.97
2019-04-10T16:25:03.109Z,14.33
2019-04-10T16:35:09.369Z,15.25
2019-04-10T16:40:13.127Z,13.50
2019-04-10T16:45:15.799Z,16.73
2019-04-10T16:50:18.169Z,22.05
2019-04-10T16:55:20.729Z,13.53
2019-04-10T17:00:23.719Z,16.97
2019-04-10T17:05:26.324Z,16.70
2019-04-10T17:10:29.463Z,20.32
2019-04-10T17:15:32.252Z,22.30
2019-04-10T17:20:34.713Z,22.85
2019-04-10T17:25:38.125Z,24.05
2019-04-10T17:30:40.620Z,21.02
2019-04-10T17:35:43.443Z,24.75
2019-04-10T17:40:51.414Z,20.12
2019-04-10T17:45:51.725Z,26.13
2019-04-10T17:50:55.359Z,24.43
2019-04-10T17:55:58.028Z,21.27
2019-04-10T18:01:02.075Z,31.97
2019-04-10T18:06:04.649Z,24.52
2019-04-10T18:11:07.776Z,22.87
2019-04-10T18:16:10.668Z,22.60
2019-04-10T18:21:13.244Z,22.43
2019-04-10T18:26:19.067Z,25.97
2019-04-10T18:31:22.503Z,23.17
2019-04-10T18:36:24.333Z,24.10
2019-04-10T18:41:27.669Z,26.70
2019-04-10T18:46:31.010Z,29.57
2019-04-10T18:51:34.075Z,27.00
2019-04-10T18:56:37.553Z,24.20
2019-04-10T19:01:45.301Z,25.07
2019-04-10T19:06:57.204Z,31.93
2019-04-10T19:12:00.364Z,27.90
2019-04-10T19:17:02.956Z,25.47
2019-04-10T19:22:06.728Z,23.20
2019-04-10T19:27:09.611Z,25.33
2019-04-10T19:32:13.829Z,25.50
2019-04-10T19:37:16.661Z,22.30
2019-04-10T19:42:19.465Z,22.70
2019-04-10T19:47:22.198Z,23.47
2019-04-10T19:52:24.648Z,26.53
2019-04-10T19:57:27.113Z,24.03
2019-04-10T20:02:30.930Z,23.53
2019-04-10T20:07:33.489Z,23.07
2019-04-10T20:12:36.974Z,23.13
2019-04-10T20:17:40.111Z,24.67
2019-04-10T20:22:43.821Z,23.93
2019-04-10T20:27:46.389Z,30.23
2019-04-10T20:32:48.863Z,29.90
2019-04-10T20:37:51.292Z,26.40
2019-04-10T20:42:54.276Z,30.30
2019-04-10T20:47:56.718Z,27.80
2019-04-10T20:52:59.838Z,49.13
2019-04-10T20:58:05.999Z,61.07
2019-04-10T21:03:07.090Z,52.87
2019-04-10T21:08:09.728Z,42.77
2019-04-10T21:13:12.943Z,34.33
2019-04-10T21:18:15.418Z,25.73
2019-04-10T21:23:17.882Z,28.23
2019-04-10T21:28:20.442Z,29.97
2019-04-10T21:33:33.299Z,27.90
2019-04-10T21:38:36.522Z,28.53
2019-04-10T21:43:38.919Z,26.37
2019-04-10T21:48:42.036Z,29.53
2019-04-10T21:53:45.154Z,24.97
2019-04-10T21:58:48.536Z,25.20
2019-04-10T22:03:52.111Z,20.07
2019-04-10T22:09:08.346Z,21.33
2019-04-10T22:14:11.012Z,18.90
2019-04-10T22:19:14.407Z,21.07
2019-04-10T22:24:17.828Z,21.30
2019-04-10T22:29:20.222Z,21.23
2019-04-10T22:34:22.592Z,19.13
2019-04-10T22:39:25.360Z,19.17
2019-04-10T22:44:38.107Z,21.45
2019-04-10T22:49:32.829Z,22.00
2019-04-10T22:54:35.233Z,17.67
2019-04-10T22:59:38.256Z,17.70
2019-04-10T23:04:40.552Z,16.93
2019-04-10T23:09:42.835Z,14.60
2019-04-10T23:14:45.109Z,13.37
2019-04-10T23:19:47.369Z,15.20
2019-04-10T23:24:49.822Z,12.80
2019-04-10T23:29:52.735Z,13.43
2019-04-10T23:34:55.250Z,14.13
2019-04-10T23:39:58.628Z,20.90
2019-04-10T23:45:01.739Z,15.53
2019-04-10T23:50:05.966Z,12.60
2019-04-10T23:55:08.665Z,13.70
